Linda L. Miller — WDF5279 — position and weather

sailwx.info

Track history (hours):
 
Tides and Currents Weather Stations Pressure Air Temp Water Temp Dewpoint Dewpoint Depression Visibility Wind Speed Wind Dir Waves Ship Positions

Linda L. Miller

Owner: Miller's Launch, Staten Island, NY. More information available from US FCC via Universal Licensing System and Coast Guard Vessel Documentation Center.

Last reported at 2018-Jun-21 19:56 UTC. Time now 2018-Jun-22 13:18 UTC.
Position N 40°38' W 074°04'.

Length 9 m; draft 1.8 m.

MMSI: 367461380.

Date/timePositionNaut miles runAvg speedWind from/ knotsBaromVisibWave heightAir tempDewpointWater temp
2018-Jun-21 19:56N 40°38' W 074°04'0 0.1
2018-Jun-21 19:30N 40°38' W 074°04'0 0.4
2018-Jun-21 19:00N 40°38' W 074°04'0 0.2
2018-Jun-21 18:16N 40°38' W 074°04'0 0.0
2018-Jun-21 17:56N 40°38' W 074°04'0 0.7
2018-Jun-21 17:30N 40°38' W 074°04'0 0.0
2018-Jun-21 17:00N 40°38' W 074°04'0 1.0
2018-Jun-21 16:30N 40°39' W 074°04'4 8.1
2018-Jun-21 16:01N 40°42' W 074°02'1 2.4
2018-Jun-21 15:30N 40°43' W 074°02'0 0.2
2018-Jun-21 15:00N 40°43' W 074°02'0 0.0
2018-Jun-21 14:30N 40°43' W 074°02'0 0.0
2018-Jun-21 14:00N 40°43' W 074°02'0 0.0
2018-Jun-21 13:30N 40°43' W 074°02'0 0.0
2018-Jun-21 13:00N 40°43' W 074°02'0 0.0
2018-Jun-21 12:29N 40°43' W 074°02'0 0.0
2018-Jun-21 12:00N 40°43' W 074°02'0 0.0
2018-Jun-21 11:30N 40°43' W 074°02'0 0.3
2018-Jun-21 11:00N 40°44' W 074°02'0 0.1
2018-Jun-21 10:30N 40°44' W 074°02'1 2.9
2018-Jun-21 10:00N 40°42' W 074°02'3 6.4
2018-Jun-21 09:30N 40°39' W 074°04'1 0.1
2018-Jun-20 18:21N 40°38' W 074°04'2 6.0
2018-Jun-20 18:00N 40°40' W 074°02'3 5.6
2018-Jun-20 17:30N 40°42' W 074°00'2 4.0
2018-Jun-20 17:00N 40°43' W 073°58'1 1.7
2018-Jun-20 16:30N 40°44' W 073°58'0 0.0
2018-Jun-20 15:59N 40°44' W 073°58'0 0.1
2018-Jun-20 15:17N 40°44' W 073°58'1 3.0
2018-Jun-20 15:00N 40°43' W 073°58'3 6.8
2018-Jun-20 14:30N 40°41' W 074°01'1 1.2
2018-Jun-20 14:00N 40°40' W 074°01'3 5.3
2018-Jun-20 13:29N 40°38' W 074°04'0 0.0
2018-Jun-19 17:36N 40°38' W 074°04'0 0.4
2018-Jun-19 17:30N 40°38' W 074°04'0 0.1
2018-Jun-19 17:00N 40°38' W 074°04'1 2.7
2018-Jun-19 16:30N 40°39' W 074°04'2 4.2
2018-Jun-19 16:00N 40°41' W 074°03'0 0.0
2018-Jun-19 15:30N 40°41' W 074°03'0 0.0
2018-Jun-19 15:00N 40°41' W 074°03'0 0.0
2018-Jun-19 14:30N 40°41' W 074°03'0 0.0
2018-Jun-19 14:00N 40°41' W 074°03'0 0.0
2018-Jun-19 13:30N 40°41' W 074°03'0 0.0
2018-Jun-19 13:00N 40°41' W 074°03'1 2.1
2018-Jun-19 12:30N 40°40' W 074°03'2 4.5
2018-Jun-19 11:59N 40°38' W 074°04'0 0.1
2018-Jun-19 11:30N 40°38' W 074°04'0 0.0
2018-Jun-19 11:00N 40°38' W 074°04'0 0.0
2018-Jun-19 10:31N 40°38' W 074°04'0 0.2
2018-Jun-19 10:00N 40°38' W 074°04'0 0.0
2018-Jun-18 14:48N 40°38' W 074°04'0 0.1
2018-Jun-18 14:30N 40°38' W 074°04'0 0.0
2018-Jun-18 14:00N 40°38' W 074°04'0 0.1
2018-Jun-18 13:30N 40°38' W 074°04'4 7.4
2018-Jun-18 13:00N 40°41' W 074°02'3 6.6
2018-Jun-18 12:30N 40°45' W 074°01'0 0.0
2018-Jun-18 12:00N 40°45' W 074°01'0 0.0
2018-Jun-18 11:30N 40°45' W 074°01'0 0.1
2018-Jun-18 11:00N 40°45' W 074°01'0 0.2
2018-Jun-18 10:30N 40°45' W 074°01'0 0.1
2018-Jun-18 10:00N 40°44' W 074°01'0 0.3
2018-Jun-18 09:30N 40°44' W 074°01'3 5.3
2018-Jun-18 09:00N 40°42' W 074°02'3 5.6
2018-Jun-18 08:30N 40°39' W 074°03'  
2018-Jun-15 23:17N 40°38' W 074°04'0 0.1
2018-Jun-15 23:00N 40°38' W 074°04'1 1.3
2018-Jun-15 22:29N 40°39' W 074°04'4 8.0
2018-Jun-15 22:00N 40°42' W 074°00'4 7.9
2018-Jun-15 21:30N 40°45' W 073°58'1 0.1
2018-Jun-15 13:20N 40°46' W 073°57'310.4
2018-Jun-15 13:00N 40°43' W 073°59'5 9.0
2018-Jun-15 12:30N 40°39' W 074°03'2 1.6
2018-Jun-15 11:35N 40°38' W 074°04'0 2.1
2018-Jun-15 11:30N 40°38' W 074°04'0 0.0
2018-Jun-15 01:54N 40°38' W 074°04'0 0.2
2018-Jun-15 01:25N 40°38' W 074°04'0 0.7
2018-Jun-15 01:00N 40°38' W 074°04'3 5.4
2018-Jun-15 00:30N 40°40' W 074°02'3 6.0
2018-Jun-15 00:00N 40°42' W 073°60'2 4.4
2018-Jun-14 23:30N 40°44' W 073°58'2 0.2
2018-Jun-14 13:25N 40°46' W 073°57'4 9.6
2018-Jun-14 13:00N 40°42' W 073°60'4 8.7
2018-Jun-14 12:30N 40°39' W 074°03'1 2.7
2018-Jun-14 12:00N 40°38' W 074°04'0 0.6
2018-Jun-14 11:29N 40°38' W 074°04'0 0.0
2018-Jun-13 14:58N 40°38' W 074°04'0 0.3
2018-Jun-13 14:30N 40°38' W 074°04'1 1.8
2018-Jun-13 14:00N 40°39' W 074°04'3 5.3
2018-Jun-13 13:30N 40°42' W 074°03'0 0.0
2018-Jun-13 13:00N 40°42' W 074°03'0 0.0
2018-Jun-13 12:30N 40°42' W 074°03'0 0.5
2018-Jun-13 12:00N 40°42' W 074°03'1 1.1
2018-Jun-13 11:30N 40°41' W 074°03'3 6.5
2018-Jun-13 11:00N 40°38' W 074°04'0 0.2
2018-Jun-13 10:30N 40°38' W 074°04'0 0.3
2018-Jun-13 10:00N 40°38' W 074°04'0 0.0
2018-Jun-12 22:46N 40°38' W 074°04'0 0.2
2018-Jun-12 22:30N 40°38' W 074°04'0 0.4
2018-Jun-12 22:00N 40°38' W 074°04'2 4.5
2018-Jun-12 21:30N 40°40' W 074°03'2 4.6
2018-Jun-12 21:00N 40°42' W 074°00'2 3.1
2018-Jun-12 20:30N 40°40' W 074°02'3 2.3
2018-Jun-12 19:11N 40°38' W 074°04'0 0.2
2018-Jun-12 19:01N 40°38' W 074°04'2 5.0
2018-Jun-12 18:31N 40°40' W 074°03'4 7.7
2018-Jun-12 18:00N 40°44' W 074°01'1 1.1
2018-Jun-12 17:30N 40°45' W 074°01'0 0.0
2018-Jun-12 17:00N 40°45' W 074°01'0 0.0
2018-Jun-12 16:30N 40°45' W 074°01'0 0.0
2018-Jun-12 16:00N 40°45' W 074°01'0 0.0
2018-Jun-12 15:29N 40°45' W 074°01'0 0.0
2018-Jun-12 15:00N 40°45' W 074°01'0 0.0
2018-Jun-12 14:28N 40°45' W 074°01'0 0.2
2018-Jun-12 14:00N 40°45' W 074°01'2 3.3
2018-Jun-12 13:30N 40°43' W 074°01'2 3.5
2018-Jun-12 13:00N 40°42' W 074°03'0 0.0
2018-Jun-12 12:30N 40°42' W 074°03'0 0.1
2018-Jun-12 12:00N 40°42' W 074°03'3 5.3
2018-Jun-12 11:29N 40°39' W 074°04'1 0.6
2018-Jun-12 10:07N 40°38' W 074°04'0 1.4
2018-Jun-12 09:59N 40°38' W 074°04'  
Track history (hours):
 
Tides and Currents Weather Stations Pressure Air Temp Water Temp Dewpoint Dewpoint Depression Visibility Wind Speed Wind Dir Waves Ship Positions

Linda L. Miller

Owner: Miller's Launch, Staten Island, NY. More information available from US FCC via Universal Licensing System and Coast Guard Vessel Documentation Center.

Last reported at 2018-Jun-21 19:56 UTC. Time now 2018-Jun-22 13:18 UTC.
Position N 40°38' W 074°04'.

Length 9 m; draft 1.8 m.

MMSI: 367461380.

Date/timePositionNaut miles runAvg speedWind from/ knotsBaromVisibWave heightAir tempDewpointWater temp
2018-Jun-21 19:56N 40°38' W 074°04'0 0.1
2018-Jun-21 19:30N 40°38' W 074°04'0 0.4
2018-Jun-21 19:00N 40°38' W 074°04'0 0.2
2018-Jun-21 18:16N 40°38' W 074°04'0 0.0
2018-Jun-21 17:56N 40°38' W 074°04'0 0.7
2018-Jun-21 17:30N 40°38' W 074°04'0 0.0
2018-Jun-21 17:00N 40°38' W 074°04'0 1.0
2018-Jun-21 16:30N 40°39' W 074°04'4 8.1
2018-Jun-21 16:01N 40°42' W 074°02'1 2.4
2018-Jun-21 15:30N 40°43' W 074°02'0 0.2
2018-Jun-21 15:00N 40°43' W 074°02'0 0.0
2018-Jun-21 14:30N 40°43' W 074°02'0 0.0
2018-Jun-21 14:00N 40°43' W 074°02'0 0.0
2018-Jun-21 13:30N 40°43' W 074°02'0 0.0
2018-Jun-21 13:00N 40°43' W 074°02'0 0.0
2018-Jun-21 12:29N 40°43' W 074°02'0 0.0
2018-Jun-21 12:00N 40°43' W 074°02'0 0.0
2018-Jun-21 11:30N 40°43' W 074°02'0 0.3
2018-Jun-21 11:00N 40°44' W 074°02'0 0.1
2018-Jun-21 10:30N 40°44' W 074°02'1 2.9
2018-Jun-21 10:00N 40°42' W 074°02'3 6.4
2018-Jun-21 09:30N 40°39' W 074°04'1 0.1
2018-Jun-20 18:21N 40°38' W 074°04'2 6.0
2018-Jun-20 18:00N 40°40' W 074°02'3 5.6
2018-Jun-20 17:30N 40°42' W 074°00'2 4.0
2018-Jun-20 17:00N 40°43' W 073°58'1 1.7
2018-Jun-20 16:30N 40°44' W 073°58'0 0.0
2018-Jun-20 15:59N 40°44' W 073°58'0 0.1
2018-Jun-20 15:17N 40°44' W 073°58'1 3.0
2018-Jun-20 15:00N 40°43' W 073°58'3 6.8
2018-Jun-20 14:30N 40°41' W 074°01'1 1.2
2018-Jun-20 14:00N 40°40' W 074°01'3 5.3
2018-Jun-20 13:29N 40°38' W 074°04'0 0.0
2018-Jun-19 17:36N 40°38' W 074°04'0 0.4
2018-Jun-19 17:30N 40°38' W 074°04'0 0.1
2018-Jun-19 17:00N 40°38' W 074°04'1 2.7
2018-Jun-19 16:30N 40°39' W 074°04'2 4.2
2018-Jun-19 16:00N 40°41' W 074°03'0 0.0
2018-Jun-19 15:30N 40°41' W 074°03'0 0.0
2018-Jun-19 15:00N 40°41' W 074°03'0 0.0
2018-Jun-19 14:30N 40°41' W 074°03'0 0.0
2018-Jun-19 14:00N 40°41' W 074°03'0 0.0
2018-Jun-19 13:30N 40°41' W 074°03'0 0.0
2018-Jun-19 13:00N 40°41' W 074°03'1 2.1
2018-Jun-19 12:30N 40°40' W 074°03'2 4.5
2018-Jun-19 11:59N 40°38' W 074°04'0 0.1
2018-Jun-19 11:30N 40°38' W 074°04'0 0.0
2018-Jun-19 11:00N 40°38' W 074°04'0 0.0
2018-Jun-19 10:31N 40°38' W 074°04'0 0.2
2018-Jun-19 10:00N 40°38' W 074°04'0 0.0
2018-Jun-18 14:48N 40°38' W 074°04'0 0.1
2018-Jun-18 14:30N 40°38' W 074°04'0 0.0
2018-Jun-18 14:00N 40°38' W 074°04'0 0.1
2018-Jun-18 13:30N 40°38' W 074°04'4 7.4
2018-Jun-18 13:00N 40°41' W 074°02'3 6.6
2018-Jun-18 12:30N 40°45' W 074°01'0 0.0
2018-Jun-18 12:00N 40°45' W 074°01'0 0.0
2018-Jun-18 11:30N 40°45' W 074°01'0 0.1
2018-Jun-18 11:00N 40°45' W 074°01'0 0.2
2018-Jun-18 10:30N 40°45' W 074°01'0 0.1
2018-Jun-18 10:00N 40°44' W 074°01'0 0.3
2018-Jun-18 09:30N 40°44' W 074°01'3 5.3
2018-Jun-18 09:00N 40°42' W 074°02'3 5.6
2018-Jun-18 08:30N 40°39' W 074°03'  
2018-Jun-15 23:17N 40°38' W 074°04'0 0.1
2018-Jun-15 23:00N 40°38' W 074°04'1 1.3
2018-Jun-15 22:29N 40°39' W 074°04'4 8.0
2018-Jun-15 22:00N 40°42' W 074°00'4 7.9
2018-Jun-15 21:30N 40°45' W 073°58'1 0.1
2018-Jun-15 13:20N 40°46' W 073°57'310.4
2018-Jun-15 13:00N 40°43' W 073°59'5 9.0
2018-Jun-15 12:30N 40°39' W 074°03'2 1.6
2018-Jun-15 11:35N 40°38' W 074°04'0 2.1
2018-Jun-15 11:30N 40°38' W 074°04'0 0.0
2018-Jun-15 01:54N 40°38' W 074°04'0 0.2
2018-Jun-15 01:25N 40°38' W 074°04'0 0.7
2018-Jun-15 01:00N 40°38' W 074°04'3 5.4
2018-Jun-15 00:30N 40°40' W 074°02'3 6.0
2018-Jun-15 00:00N 40°42' W 073°60'2 4.4
2018-Jun-14 23:30N 40°44' W 073°58'2 0.2
2018-Jun-14 13:25N 40°46' W 073°57'4 9.6
2018-Jun-14 13:00N 40°42' W 073°60'4 8.7
2018-Jun-14 12:30N 40°39' W 074°03'1 2.7
2018-Jun-14 12:00N 40°38' W 074°04'0 0.6
2018-Jun-14 11:29N 40°38' W 074°04'0 0.0
2018-Jun-13 14:58N 40°38' W 074°04'0 0.3
2018-Jun-13 14:30N 40°38' W 074°04'1 1.8
2018-Jun-13 14:00N 40°39' W 074°04'3 5.3
2018-Jun-13 13:30N 40°42' W 074°03'0 0.0
2018-Jun-13 13:00N 40°42' W 074°03'0 0.0
2018-Jun-13 12:30N 40°42' W 074°03'0 0.5
2018-Jun-13 12:00N 40°42' W 074°03'1 1.1
2018-Jun-13 11:30N 40°41' W 074°03'3 6.5
2018-Jun-13 11:00N 40°38' W 074°04'0 0.2
2018-Jun-13 10:30N 40°38' W 074°04'0 0.3
2018-Jun-13 10:00N 40°38' W 074°04'0 0.0
2018-Jun-12 22:46N 40°38' W 074°04'0 0.2
2018-Jun-12 22:30N 40°38' W 074°04'0 0.4
2018-Jun-12 22:00N 40°38' W 074°04'2 4.5
2018-Jun-12 21:30N 40°40' W 074°03'2 4.6
2018-Jun-12 21:00N 40°42' W 074°00'2 3.1
2018-Jun-12 20:30N 40°40' W 074°02'3 2.3
2018-Jun-12 19:11N 40°38' W 074°04'0 0.2
2018-Jun-12 19:01N 40°38' W 074°04'2 5.0
2018-Jun-12 18:31N 40°40' W 074°03'4 7.7
2018-Jun-12 18:00N 40°44' W 074°01'1 1.1
2018-Jun-12 17:30N 40°45' W 074°01'0 0.0
2018-Jun-12 17:00N 40°45' W 074°01'0 0.0
2018-Jun-12 16:30N 40°45' W 074°01'0 0.0
2018-Jun-12 16:00N 40°45' W 074°01'0 0.0
2018-Jun-12 15:29N 40°45' W 074°01'0 0.0
2018-Jun-12 15:00N 40°45' W 074°01'0 0.0
2018-Jun-12 14:28N 40°45' W 074°01'0 0.2
2018-Jun-12 14:00N 40°45' W 074°01'2 3.3
2018-Jun-12 13:30N 40°43' W 074°01'2 3.5
2018-Jun-12 13:00N 40°42' W 074°03'0 0.0
2018-Jun-12 12:30N 40°42' W 074°03'0 0.1
2018-Jun-12 12:00N 40°42' W 074°03'3 5.3
2018-Jun-12 11:29N 40°39' W 074°04'1 0.6
2018-Jun-12 10:07N 40°38' W 074°04'0 1.4
2018-Jun-12 09:59N 40°38' W 074°04'  

Dump ship's entire track history